Terminal Aerodrome Forecast
Issued by NWS

Home | Current Version | Previous Version | Text Only | Print | Product List | Glossary On
Versions: 1 2 3 4 5 6 7 8 9 10 11 12 13
000
FTUS45 KVEF 282323
TAFBIH
TAF
KBIH 282323Z 2900/2924 18008KT P6SM FEW120
     FM290300 VRB05KT P6SM SKC
     FM290600 31007KT P6SM SKC
     FM291700 VRB04KT P6SM SKC
     FM292000 18010KT P6SM FEW110=

USA.gov is the U.S. government's official web portal to all federal, state and local government web resources and services.